createdAt,value
2023-03-31T00:00:51.433Z,7.24
2023-03-31T00:03:22.629Z,7.27
2023-03-31T00:05:53.748Z,7.15
2023-03-31T00:08:21.442Z,7.24
2023-03-31T00:10:49.231Z,7.20
2023-03-31T00:13:16.176Z,7.18
2023-03-31T00:15:42.896Z,7.19
2023-03-31T00:18:09.590Z,7.23
2023-03-31T00:20:38.349Z,7.14
2023-03-31T00:23:11.322Z,7.37
2023-03-31T00:25:41.831Z,7.40
2023-03-31T00:28:08.593Z,7.19
2023-03-31T00:30:35.384Z,7.31
2023-03-31T00:33:02.427Z,7.39
2023-03-31T00:35:29.117Z,7.36
2023-03-31T00:37:58.128Z,7.44
2023-03-31T00:40:25.082Z,7.43
2023-03-31T00:42:52.213Z,7.32
2023-03-31T00:45:27.595Z,7.49
2023-03-31T00:48:13.672Z,7.49
2023-03-31T00:50:49.973Z,7.51
2023-03-31T00:53:19.353Z,7.46
2023-03-31T00:55:53.377Z,7.44
2023-03-31T00:58:21.941Z,7.53
2023-03-31T01:00:51.516Z,7.55
2023-03-31T01:03:19.462Z,7.40
2023-03-31T01:05:50.347Z,7.51
2023-03-31T01:08:20.202Z,7.49
2023-03-31T01:10:51.366Z,7.42
2023-03-31T01:13:20.182Z,7.42
2023-03-31T01:15:47.460Z,7.48
2023-03-31T01:18:16.517Z,7.27
2023-03-31T01:21:23.524Z,7.46
2023-03-31T01:24:18.353Z,7.46
2023-03-31T01:27:01.881Z,7.47
2023-03-31T01:30:00.796Z,7.48
2023-03-31T01:32:59.578Z,7.46
2023-03-31T01:36:08.896Z,7.24
2023-03-31T01:39:10.779Z,7.35
2023-03-31T01:42:08.531Z,7.36
2023-03-31T01:44:43.974Z,7.33
2023-03-31T01:47:13.871Z,7.27
2023-03-31T01:50:00.598Z,7.30
2023-03-31T01:52:49.968Z,7.19
2023-03-31T01:55:24.686Z,7.19
2023-03-31T01:57:57.972Z,7.28
2023-03-31T02:00:33.728Z,7.25
2023-03-31T02:03:11.948Z,7.25
2023-03-31T02:05:45.616Z,7.26
2023-03-31T02:08:17.176Z,7.24
2023-03-31T02:10:46.603Z,7.26
2023-03-31T02:13:19.047Z,7.23
2023-03-31T02:15:51.672Z,7.20
2023-03-31T02:18:20.883Z,7.06
2023-03-31T02:20:51.531Z,7.11
2023-03-31T02:23:23.358Z,6.95
2023-03-31T02:25:54.757Z,6.94
2023-03-31T02:28:24.634Z,6.93
2023-03-31T02:31:06.878Z,6.85
2023-03-31T02:33:33.808Z,6.72
2023-03-31T02:36:01.144Z,6.77
2023-03-31T02:38:28.573Z,6.72
2023-03-31T02:40:55.341Z,6.74
2023-03-31T02:43:23.054Z,6.69
2023-03-31T02:45:51.566Z,6.73
2023-03-31T02:48:28.991Z,6.59
2023-03-31T02:51:09.157Z,6.75
2023-03-31T02:53:51.014Z,6.73
2023-03-31T02:56:50.484Z,6.57
2023-03-31T02:59:32.076Z,6.77
2023-03-31T03:02:11.069Z,6.76
2023-03-31T03:05:18.956Z,6.80
2023-03-31T03:08:00.745Z,6.83
2023-03-31T03:10:46.118Z,6.82
2023-03-31T03:13:20.069Z,6.84
2023-03-31T03:15:52.865Z,6.84
2023-03-31T03:18:19.778Z,6.79
2023-03-31T03:20:49.457Z,6.65
2023-03-31T03:23:16.949Z,6.73
2023-03-31T03:25:44.617Z,6.72
2023-03-31T03:28:11.481Z,6.75
2023-03-31T03:30:38.320Z,6.67
2023-03-31T03:33:07.054Z,6.73
2023-03-31T03:35:35.028Z,6.78
2023-03-31T03:38:01.878Z,6.69
2023-03-31T03:40:28.597Z,6.82
2023-03-31T03:42:55.501Z,6.75
2023-03-31T03:45:22.145Z,6.68
2023-03-31T03:47:48.828Z,6.76
2023-03-31T03:50:16.701Z,6.76
2023-03-31T03:52:44.131Z,6.78
2023-03-31T03:55:12.308Z,6.77
2023-03-31T03:57:39.003Z,6.65
2023-03-31T04:00:12.840Z,6.69
2023-03-31T04:02:40.107Z,6.79
2023-03-31T04:05:07.353Z,6.79
2023-03-31T04:07:34.242Z,6.75
2023-03-31T04:10:01.052Z,6.69
2023-03-31T04:12:27.695Z,6.76
2023-03-31T04:14:54.453Z,6.78
2023-03-31T04:17:33.335Z,6.71
2023-03-31T04:20:06.247Z,6.76
2023-03-31T04:22:40.785Z,6.75
2023-03-31T04:25:16.880Z,6.78
2023-03-31T04:27:55.728Z,6.73
2023-03-31T04:30:24.152Z,6.78
2023-03-31T04:32:59.610Z,6.83
2023-03-31T04:35:43.044Z,6.79
2023-03-31T04:38:10.108Z,6.78
2023-03-31T04:40:36.875Z,6.73
2023-03-31T04:43:03.602Z,6.76
2023-03-31T04:45:30.291Z,6.56
2023-03-31T04:47:57.111Z,6.76
2023-03-31T04:50:23.781Z,6.77
2023-03-31T04:52:50.654Z,6.76
2023-03-31T04:55:17.372Z,6.73
2023-03-31T04:57:44.144Z,6.49
2023-03-31T05:00:11.729Z,6.77
2023-03-31T05:02:38.482Z,6.84
2023-03-31T05:05:06.177Z,6.84
2023-03-31T05:07:33.056Z,6.80
2023-03-31T05:09:59.716Z,6.91
2023-03-31T05:12:26.463Z,6.94
2023-03-31T05:14:53.299Z,6.95
2023-03-31T05:17:20.006Z,7.09
2023-03-31T05:19:46.700Z,7.19
2023-03-31T05:22:13.527Z,7.31
2023-03-31T05:24:40.176Z,7.34
2023-03-31T05:27:06.869Z,7.36
2023-03-31T05:29:33.568Z,7.24
2023-03-31T05:32:00.272Z,7.18
2023-03-31T05:34:27.074Z,7.33
2023-03-31T05:36:54.128Z,7.24
2023-03-31T05:39:21.448Z,7.24
2023-03-31T05:41:48.336Z,7.13
2023-03-31T05:44:15.576Z,7.27
2023-03-31T05:46:42.657Z,7.90
2023-03-31T05:49:10.176Z,8.56
2023-03-31T05:51:36.875Z,9.15
2023-03-31T05:54:03.761Z,9.56
2023-03-31T05:56:30.549Z,9.96
2023-03-31T05:59:00.606Z,10.34
2023-03-31T06:01:28.005Z,10.56
2023-03-31T06:03:55.002Z,10.86
2023-03-31T06:06:22.638Z,11.33
2023-03-31T06:08:49.657Z,11.62
2023-03-31T06:11:19.716Z,11.49
2023-03-31T06:13:47.212Z,11.18
2023-03-31T06:16:15.797Z,10.84
2023-03-31T06:18:43.036Z,10.84
2023-03-31T06:21:17.562Z,10.84
2023-03-31T06:23:45.618Z,11.35
2023-03-31T06:26:15.018Z,11.63
2023-03-31T06:28:43.112Z,11.86
2023-03-31T06:31:12.871Z,12.08
2023-03-31T06:33:41.362Z,12.07
2023-03-31T06:36:09.911Z,11.96
2023-03-31T06:38:40.715Z,11.76
2023-03-31T06:41:09.818Z,11.46
2023-03-31T06:43:37.468Z,11.14
2023-03-31T06:46:05.195Z,11.06
2023-03-31T06:48:32.169Z,11.01
2023-03-31T06:51:04.876Z,10.89
2023-03-31T06:53:32.138Z,10.80
2023-03-31T06:55:59.119Z,11.17
2023-03-31T06:58:27.677Z,11.67
2023-03-31T07:00:55.735Z,12.23
2023-03-31T07:03:22.876Z,12.57
2023-03-31T07:05:51.093Z,12.77
2023-03-31T07:08:18.404Z,12.91
2023-03-31T07:10:48.835Z,13.14
2023-03-31T07:13:17.352Z,13.34
2023-03-31T07:15:47.569Z,13.47
2023-03-31T07:18:17.173Z,13.38
2023-03-31T07:20:50.849Z,12.98
2023-03-31T07:23:18.741Z,13.42
2023-03-31T07:25:46.695Z,13.53
2023-03-31T07:28:13.396Z,13.45
2023-03-31T07:30:41.273Z,13.53
2023-03-31T07:33:09.870Z,13.61
2023-03-31T07:35:41.352Z,13.77
2023-03-31T07:38:10.067Z,13.68
2023-03-31T07:40:38.870Z,13.34
2023-03-31T07:43:06.417Z,13.39
2023-03-31T07:45:34.666Z,13.54
2023-03-31T07:48:02.964Z,13.77
2023-03-31T07:50:33.589Z,13.43
2023-03-31T07:53:00.716Z,13.43
2023-03-31T07:55:27.561Z,13.62
2023-03-31T07:57:58.382Z,13.32
2023-03-31T08:00:25.491Z,13.41
2023-03-31T08:02:52.382Z,13.36
2023-03-31T08:05:21.087Z,13.10
2023-03-31T08:08:01.629Z,13.35
2023-03-31T08:10:28.485Z,13.28
2023-03-31T08:13:02.852Z,13.16
2023-03-31T08:15:29.878Z,12.80
2023-03-31T08:17:57.627Z,12.91
2023-03-31T08:20:28.286Z,12.81
2023-03-31T08:23:07.349Z,12.81
2023-03-31T08:25:34.077Z,13.14
2023-03-31T08:28:14.664Z,13.38
2023-03-31T08:30:43.973Z,12.36
2023-03-31T08:33:13.157Z,12.48
2023-03-31T08:35:40.210Z,12.38
2023-03-31T08:38:09.952Z,12.25
2023-03-31T08:40:41.616Z,12.26
2023-03-31T08:43:27.476Z,12.23
2023-03-31T08:45:56.596Z,12.22
2023-03-31T08:48:33.695Z,12.48
2023-03-31T08:51:41.374Z,12.84
2023-03-31T08:54:32.537Z,12.88
2023-03-31T08:57:12.812Z,12.92
2023-03-31T08:59:44.079Z,13.45
2023-03-31T09:02:30.329Z,13.08
2023-03-31T09:05:15.477Z,13.58
2023-03-31T09:07:59.438Z,13.94
2023-03-31T09:10:54.947Z,14.20
2023-03-31T09:13:57.324Z,14.43
2023-03-31T09:16:34.148Z,14.59
2023-03-31T09:19:02.167Z,14.86
2023-03-31T09:21:38.498Z,14.83
2023-03-31T09:24:11.213Z,14.85
2023-03-31T09:26:53.120Z,14.89
2023-03-31T09:29:24.600Z,14.52
2023-03-31T09:31:54.861Z,14.01
2023-03-31T09:38:02.005Z,14.19
2023-03-31T09:40:29.375Z,13.91
2023-03-31T09:43:29.230Z,14.13
2023-03-31T09:46:14.846Z,14.08
2023-03-31T09:49:00.813Z,13.79
2023-03-31T09:51:37.607Z,14.19
2023-03-31T09:54:44.831Z,14.23
2023-03-31T09:57:37.438Z,14.29
2023-03-31T10:00:19.994Z,14.28
2023-03-31T10:03:01.783Z,14.13
2023-03-31T10:05:50.221Z,14.32
2023-03-31T10:08:17.197Z,14.46
2023-03-31T10:11:08.124Z,14.60
2023-03-31T10:14:01.667Z,14.87
2023-03-31T10:16:35.338Z,14.81
2023-03-31T10:19:24.537Z,14.92
2023-03-31T10:22:06.504Z,15.18
2023-03-31T10:24:41.309Z,15.11
2023-03-31T10:27:24.423Z,14.93
2023-03-31T10:30:03.210Z,14.89
2023-03-31T10:32:39.507Z,15.01
2023-03-31T10:35:13.014Z,14.97
2023-03-31T10:37:41.074Z,14.69
2023-03-31T10:40:28.936Z,14.45
2023-03-31T10:43:09.817Z,14.52
2023-03-31T10:45:58.878Z,14.52
2023-03-31T10:48:33.379Z,14.45
2023-03-31T10:51:05.815Z,14.26
2023-03-31T10:53:49.530Z,14.03
2023-03-31T10:56:46.521Z,13.59
2023-03-31T10:59:43.852Z,13.52
2023-03-31T11:02:22.977Z,13.37
2023-03-31T11:04:52.304Z,13.21
2023-03-31T11:07:39.063Z,12.82
2023-03-31T11:10:15.492Z,12.95
2023-03-31T11:13:01.185Z,13.08
2023-03-31T11:15:38.590Z,13.19
2023-03-31T11:18:36.625Z,13.21
2023-03-31T11:21:06.641Z,13.19
2023-03-31T11:23:44.022Z,13.17
2023-03-31T11:26:17.767Z,13.01
2023-03-31T11:29:09.308Z,13.20
2023-03-31T11:31:58.819Z,13.14
2023-03-31T11:34:26.064Z,13.05
2023-03-31T11:37:21.642Z,13.18
2023-03-31T11:39:48.475Z,13.14
2023-03-31T11:42:22.818Z,13.08
2023-03-31T11:44:58.231Z,13.05
2023-03-31T11:47:31.414Z,12.93
2023-03-31T11:50:10.370Z,12.89
2023-03-31T11:52:44.950Z,12.81
2023-03-31T11:55:19.582Z,12.74
2023-03-31T11:57:56.767Z,12.63
2023-03-31T12:00:30.203Z,12.94
2023-03-31T12:03:04.859Z,13.02
2023-03-31T12:05:35.157Z,13.41
2023-03-31T12:08:08.119Z,13.60
2023-03-31T12:10:37.554Z,13.66
2023-03-31T12:13:31.435Z,13.78
2023-03-31T12:16:13.961Z,13.84
2023-03-31T12:18:50.031Z,13.74
2023-03-31T12:21:17.669Z,13.61
2023-03-31T12:23:46.148Z,13.63
2023-03-31T12:26:28.302Z,13.72
2023-03-31T12:29:01.401Z,13.50
2023-03-31T12:31:30.889Z,13.58
2023-03-31T12:34:02.104Z,13.82
2023-03-31T12:36:32.112Z,13.91
2023-03-31T12:39:21.753Z,14.12
2023-03-31T12:42:26.096Z,13.95
2023-03-31T12:45:11.220Z,13.66
2023-03-31T12:48:08.837Z,13.54
2023-03-31T12:50:54.218Z,13.39
2023-03-31T12:53:40.716Z,13.30
2023-03-31T12:56:08.863Z,13.09
2023-03-31T12:58:40.310Z,13.15
2023-03-31T13:01:24.283Z,13.13
2023-03-31T13:04:07.248Z,13.09
2023-03-31T13:06:34.060Z,13.05
2023-03-31T13:09:33.893Z,13.00
2023-03-31T13:12:08.523Z,12.78
2023-03-31T13:14:40.381Z,13.10
2023-03-31T13:17:30.065Z,13.35
2023-03-31T13:20:25.175Z,13.34
2023-03-31T13:23:01.454Z,13.40
2023-03-31T13:25:31.208Z,13.43
2023-03-31T13:28:04.671Z,13.51
2023-03-31T13:30:53.502Z,13.56
2023-03-31T13:33:45.042Z,13.60
2023-03-31T13:36:24.893Z,13.67
2023-03-31T13:39:29.044Z,13.74
2023-03-31T13:42:06.279Z,13.65
2023-03-31T13:44:57.766Z,13.56
2023-03-31T13:47:51.004Z,13.02
2023-03-31T13:50:22.533Z,12.50
2023-03-31T13:52:58.099Z,11.74
2023-03-31T13:55:46.860Z,11.13
2023-03-31T13:58:29.993Z,10.75
2023-03-31T14:01:19.663Z,10.61
2023-03-31T14:03:52.629Z,10.60
2023-03-31T14:06:53.162Z,10.67
2023-03-31T14:09:33.264Z,10.73
2023-03-31T14:12:01.093Z,10.76
2023-03-31T14:14:29.963Z,10.99
2023-03-31T14:17:03.823Z,11.08
2023-03-31T14:19:52.221Z,11.16
2023-03-31T14:22:41.561Z,11.28
2023-03-31T14:25:46.484Z,11.37
2023-03-31T14:28:25.235Z,11.42
2023-03-31T14:30:54.801Z,11.43
2023-03-31T14:33:41.808Z,11.38
2023-03-31T14:36:30.878Z,11.38
2023-03-31T14:39:04.682Z,11.44
2023-03-31T14:41:31.576Z,11.47
2023-03-31T14:44:02.873Z,11.27
2023-03-31T14:46:35.240Z,11.59
2023-03-31T14:49:21.756Z,11.68
2023-03-31T14:51:49.013Z,11.74
2023-03-31T14:54:18.514Z,11.72
2023-03-31T14:56:50.902Z,11.56
2023-03-31T14:59:31.276Z,11.61
2023-03-31T15:02:00.520Z,11.45
2023-03-31T15:04:39.629Z,11.47
2023-03-31T15:07:09.865Z,11.29
2023-03-31T15:09:36.792Z,11.15
2023-03-31T15:12:07.758Z,11.03
2023-03-31T15:14:43.778Z,10.99
2023-03-31T15:17:26.260Z,10.92
2023-03-31T15:19:59.707Z,10.93
2023-03-31T15:22:30.028Z,10.96
2023-03-31T15:24:57.530Z,10.80
2023-03-31T15:27:38.316Z,10.86
2023-03-31T15:30:23.638Z,10.81
2023-03-31T15:32:50.754Z,10.68
2023-03-31T15:35:36.895Z,10.70
2023-03-31T15:38:06.577Z,10.78
2023-03-31T15:40:40.354Z,10.93
2023-03-31T15:43:25.329Z,10.91
2023-03-31T15:45:54.959Z,10.70
2023-03-31T15:48:35.169Z,10.78
2023-03-31T15:51:13.991Z,10.87
2023-03-31T15:53:54.666Z,10.86
2023-03-31T15:56:48.208Z,10.86
2023-03-31T15:59:34.212Z,10.73
2023-03-31T16:02:03.822Z,10.85
2023-03-31T16:04:33.403Z,10.84
2023-03-31T16:07:14.955Z,10.73
2023-03-31T16:09:49.974Z,10.74
2023-03-31T16:12:22.903Z,10.80
2023-03-31T16:15:02.478Z,10.79
2023-03-31T16:17:37.359Z,10.80
2023-03-31T16:20:24.658Z,10.92
2023-03-31T16:22:55.130Z,10.96
2023-03-31T16:25:24.122Z,10.89
2023-03-31T16:27:55.741Z,10.95
2023-03-31T16:30:38.237Z,10.83
2023-03-31T16:33:17.833Z,10.76
2023-03-31T16:35:53.796Z,10.76
2023-03-31T16:38:28.935Z,10.70
2023-03-31T16:41:00.592Z,10.64
2023-03-31T16:43:31.734Z,10.42
2023-03-31T16:46:00.760Z,10.41
2023-03-31T16:48:29.601Z,10.53
2023-03-31T16:50:58.672Z,10.45
2023-03-31T16:53:28.567Z,10.35
2023-03-31T16:55:58.691Z,10.27
2023-03-31T16:58:28.564Z,10.23
2023-03-31T17:00:56.662Z,10.12
2023-03-31T17:03:23.904Z,10.14
2023-03-31T17:05:53.305Z,10.07
2023-03-31T17:08:21.827Z,10.05
2023-03-31T17:11:11.119Z,9.98
2023-03-31T17:13:38.915Z,9.90
2023-03-31T17:16:18.617Z,9.93
2023-03-31T17:18:51.233Z,9.82
2023-03-31T17:21:21.287Z,10.02
2023-03-31T17:23:48.072Z,10.00
2023-03-31T17:26:18.617Z,10.00
2023-03-31T17:28:45.642Z,9.98
2023-03-31T17:31:12.748Z,9.91
2023-03-31T17:33:40.844Z,9.79
2023-03-31T17:36:08.129Z,9.72
2023-03-31T17:38:34.926Z,9.83
2023-03-31T17:41:06.242Z,9.90
2023-03-31T17:43:33.571Z,9.90
2023-03-31T17:46:06.568Z,9.88
2023-03-31T17:48:38.083Z,9.77
2023-03-31T17:51:13.303Z,9.72
2023-03-31T17:53:40.092Z,9.66
2023-03-31T17:56:06.975Z,9.65
2023-03-31T17:58:33.820Z,9.61
2023-03-31T18:01:00.767Z,9.49
2023-03-31T18:03:30.708Z,9.63
2023-03-31T18:05:57.783Z,9.44
2023-03-31T18:08:24.575Z,9.61
2023-03-31T18:10:51.656Z,9.52
2023-03-31T18:13:18.406Z,9.62
2023-03-31T18:15:52.799Z,9.59
2023-03-31T18:18:21.011Z,9.57
2023-03-31T18:20:50.454Z,9.36
2023-03-31T18:23:17.157Z,9.32
2023-03-31T18:25:46.267Z,9.36
2023-03-31T18:28:14.355Z,9.37
2023-03-31T18:30:41.452Z,8.99
2023-03-31T18:33:08.212Z,9.21
2023-03-31T18:35:35.372Z,9.18
2023-03-31T18:38:02.468Z,9.12
2023-03-31T18:40:31.239Z,9.12
2023-03-31T18:42:57.916Z,9.10
2023-03-31T18:45:24.767Z,8.96
2023-03-31T18:47:51.483Z,8.87
2023-03-31T18:50:19.311Z,8.71
2023-03-31T18:52:47.656Z,8.74
2023-03-31T18:55:15.747Z,8.75
2023-03-31T18:57:42.379Z,8.81
2023-03-31T19:00:10.387Z,8.84
2023-03-31T19:02:37.230Z,8.78
2023-03-31T19:05:04.197Z,8.47
2023-03-31T19:07:30.971Z,8.70
2023-03-31T19:09:58.269Z,8.59
2023-03-31T19:12:24.980Z,8.49
2023-03-31T19:14:54.245Z,8.59
2023-03-31T19:17:21.080Z,8.50
2023-03-31T19:19:47.866Z,8.34
2023-03-31T19:22:14.610Z,8.41
2023-03-31T19:24:41.301Z,8.60
2023-03-31T19:27:09.457Z,8.61
2023-03-31T19:29:36.190Z,8.45
2023-03-31T19:32:03.006Z,8.49
2023-03-31T19:34:29.790Z,8.37
2023-03-31T19:36:56.764Z,8.46
2023-03-31T19:39:25.607Z,8.41
2023-03-31T19:41:54.365Z,8.24
2023-03-31T19:44:22.153Z,8.13
2023-03-31T19:46:50.109Z,8.00
2023-03-31T19:49:18.004Z,7.93
2023-03-31T19:51:44.712Z,7.95
2023-03-31T19:54:12.035Z,8.02
2023-03-31T19:56:39.414Z,8.08
2023-03-31T19:59:06.595Z,8.16
2023-03-31T20:01:33.693Z,8.11
2023-03-31T20:04:01.048Z,8.20
2023-03-31T20:06:30.114Z,8.25
2023-03-31T20:08:59.414Z,8.28
2023-03-31T20:11:27.726Z,8.16
2023-03-31T20:13:55.479Z,8.42
2023-03-31T20:16:25.288Z,8.45
2023-03-31T20:18:58.842Z,8.40
2023-03-31T20:21:28.847Z,8.29
2023-03-31T20:23:57.324Z,8.25
2023-03-31T20:26:32.685Z,8.22
2023-03-31T20:29:04.252Z,8.23
2023-03-31T20:31:34.165Z,8.15
2023-03-31T20:34:00.910Z,8.11
2023-03-31T20:36:29.857Z,8.11
2023-03-31T20:38:57.284Z,7.92
2023-03-31T20:41:27.201Z,8.09
2023-03-31T20:43:55.418Z,8.07
2023-03-31T20:46:22.550Z,7.93
2023-03-31T20:48:52.168Z,7.78
2023-03-31T20:51:22.128Z,7.71
2023-03-31T20:53:53.054Z,7.82
2023-03-31T20:56:33.741Z,7.77
2023-03-31T20:59:00.670Z,7.69
2023-03-31T21:01:30.177Z,7.69
2023-03-31T21:04:01.173Z,7.61
2023-03-31T21:06:30.503Z,7.53
2023-03-31T21:08:57.683Z,7.58
2023-03-31T21:11:25.488Z,7.20
2023-03-31T21:13:53.374Z,7.45
2023-03-31T21:16:21.312Z,7.50
2023-03-31T21:18:48.588Z,7.53
2023-03-31T21:21:18.980Z,7.73
2023-03-31T21:23:46.800Z,7.76
2023-03-31T21:26:15.816Z,7.94
2023-03-31T21:28:43.874Z,8.00
2023-03-31T21:31:11.992Z,8.12
2023-03-31T21:33:40.757Z,8.14
2023-03-31T21:36:10.200Z,8.14
2023-03-31T21:38:37.654Z,8.10
2023-03-31T21:41:09.302Z,8.07
2023-03-31T21:43:36.807Z,8.12
2023-03-31T21:46:04.229Z,8.09
2023-03-31T21:48:33.419Z,8.07
2023-03-31T21:51:03.834Z,8.03
2023-03-31T21:53:31.238Z,8.03
2023-03-31T21:55:58.165Z,7.99
2023-03-31T21:58:28.711Z,7.94
2023-03-31T22:00:58.092Z,7.95
2023-03-31T22:03:28.898Z,7.93
2023-03-31T22:05:57.024Z,7.91
2023-03-31T22:08:24.763Z,7.89
2023-03-31T22:10:52.341Z,7.90
2023-03-31T22:13:20.250Z,7.89
2023-03-31T22:15:47.055Z,7.81
2023-03-31T22:18:13.989Z,7.87
2023-03-31T22:20:41.084Z,7.85
2023-03-31T22:23:08.087Z,7.87
2023-03-31T22:25:35.529Z,7.85
2023-03-31T22:28:04.541Z,7.83
2023-03-31T22:30:33.628Z,7.81
2023-03-31T22:33:00.639Z,7.74
2023-03-31T22:35:27.750Z,7.73
2023-03-31T22:37:54.605Z,7.70
2023-03-31T22:40:21.617Z,7.55
2023-03-31T22:42:51.057Z,7.68
2023-03-31T22:45:17.866Z,7.37
2023-03-31T22:47:44.722Z,7.63
2023-03-31T22:50:12.083Z,7.62
2023-03-31T22:52:38.772Z,7.54
2023-03-31T22:55:06.483Z,7.52
2023-03-31T22:57:33.767Z,7.47
2023-03-31T23:00:00.919Z,7.46
2023-03-31T23:02:27.862Z,7.41
2023-03-31T23:04:54.571Z,7.41
2023-03-31T23:07:22.160Z,7.24
2023-03-31T23:09:49.276Z,7.30
2023-03-31T23:12:16.187Z,7.33
2023-03-31T23:14:43.000Z,7.31
2023-03-31T23:17:09.709Z,7.29
2023-03-31T23:19:37.924Z,7.25
2023-03-31T23:22:04.642Z,7.22
2023-03-31T23:24:31.353Z,7.20
2023-03-31T23:26:58.159Z,7.23
2023-03-31T23:29:24.903Z,7.23
2023-03-31T23:31:51.880Z,7.19
2023-03-31T23:34:18.670Z,7.18
2023-03-31T23:36:45.562Z,7.13
2023-03-31T23:39:12.250Z,7.09
2023-03-31T23:41:39.087Z,7.09
2023-03-31T23:44:06.416Z,6.90
2023-03-31T23:46:33.872Z,7.05
2023-03-31T23:49:02.900Z,7.02
2023-03-31T23:51:31.055Z,6.96
2023-03-31T23:53:57.848Z,6.95
2023-03-31T23:56:26.237Z,6.84
2023-03-31T23:58:53.154Z,6.82
